Time;durP1;ratioP1;P1;durP2;ratioP2;P2;SDS_P1;SDS_P2;PMS_P1;PMS_P2;Temp;Humidity;BMP_temperature;BMP_pressure;BME280_temperature;BME280_humidity;BME280_pressure;Samples;Min_cycle;Max_cycle;Signal;HPM_P1;HPM_P2
2022/10/17 00:01:05;;;;;;;11.65;7.20;;;;;;;13.00;100.00;101507.06;5049632;28;20480;-50
2022/10/17 00:03:36;;;;;;;10.82;7.22;;;;;;;12.97;100.00;101510.75;5048090;28;20048;-49
2022/10/17 00:06:07;;;;;;;9.80;7.15;;;;;;;12.97;100.00;101504.63;5050108;28;20041;-52
2022/10/17 00:08:35;;;;;;;11.38;7.75;;;;;;;12.96;100.00;101510.84;5050064;28;20053;-50
2022/10/17 00:11:06;;;;;;;14.68;7.68;;;;;;;12.85;100.00;101511.53;5049259;28;20048;-52
2022/10/17 00:13:35;;;;;;;11.05;7.85;;;;;;;12.83;100.00;101497.63;5049699;28;20041;-52
2022/10/17 00:16:03;;;;;;;12.35;7.65;;;;;;;12.83;100.00;101505.53;5049168;28;20511;-51
2022/10/17 00:18:31;;;;;;;11.63;8.52;;;;;;;12.78;100.00;101499.69;5047964;28;20048;-51
2022/10/17 00:21:00;;;;;;;13.93;9.20;;;;;;;12.76;100.00;101489.25;5049398;28;20060;-52
2022/10/17 00:23:29;;;;;;;12.02;9.45;;;;;;;12.83;100.00;101487.06;5049006;28;20052;-50
2022/10/17 00:26:01;;;;;;;19.80;10.35;;;;;;;12.84;100.00;101488.72;5049073;28;20539;-50
2022/10/17 00:28:30;;;;;;;15.20;9.40;;;;;;;12.81;100.00;101483.66;5048922;28;20049;-53
2022/10/17 00:30:59;;;;;;;15.93;9.50;;;;;;;12.80;100.00;101482.81;5049336;28;20060;-51
2022/10/17 00:33:28;;;;;;;13.70;9.63;;;;;;;12.75;100.00;101481.41;5047256;28;20072;-52
2022/10/17 00:36:09;;;;;;;14.95;9.45;;;;;;;12.79;100.00;101482.91;5048632;28;20041;-52
2022/10/17 00:38:37;;;;;;;14.75;9.50;;;;;;;12.79;100.00;101491.66;5048957;28;20123;-53
2022/10/17 00:41:06;;;;;;;14.77;10.23;;;;;;;12.76;100.00;101491.88;5048447;28;20763;-51
2022/10/17 00:43:50;;;;;;;13.20;9.65;;;;;;;12.79;100.00;101490.84;5048996;28;20041;-53
2022/10/17 00:46:18;;;;;;;16.20;9.85;;;;;;;12.79;100.00;101498.75;5048672;28;20049;-50
2022/10/17 00:48:48;;;;;;;15.40;9.85;;;;;;;12.79;100.00;101486.41;5047807;28;20047;-51
2022/10/17 00:51:23;;;;;;;13.90;9.88;;;;;;;12.78;100.00;101486.50;5049421;28;20049;-51
2022/10/17 00:53:51;;;;;;;13.57;9.70;;;;;;;12.80;100.00;101487.22;5049289;28;20361;-49
2022/10/17 00:56:20;;;;;;;14.88;9.63;;;;;;;12.80;100.00;101484.59;5048543;28;20355;-48
2022/10/17 00:58:49;;;;;;;15.48;9.20;;;;;;;12.79;100.00;101483.75;5049084;28;20053;-50
2022/10/17 01:01:20;;;;;;;12.65;9.60;;;;;;;12.78;100.00;101478.56;5048513;28;20044;-50
2022/10/17 01:03:48;;;;;;;13.68;10.00;;;;;;;12.81;100.00;101479.22;5047536;28;20060;-47
2022/10/17 01:06:18;;;;;;;17.60;11.55;;;;;;;12.82;100.00;101483.56;5048924;28;20056;-52
2022/10/17 01:08:49;;;;;;;15.60;10.60;;;;;;;12.83;100.00;101482.59;5049376;28;20047;-51
2022/10/17 01:11:26;;;;;;;14.90;10.35;;;;;;;12.82;100.00;101480.06;5048871;28;20063;-50
2022/10/17 01:14:01;;;;;;;15.18;10.85;;;;;;;13.00;100.00;101476.22;5048564;28;20064;-52
2022/10/17 01:16:42;;;;;;;13.43;10.13;;;;;;;12.93;100.00;101466.19;5048728;28;20052;-52
2022/10/17 01:19:35;;;;;;;14.20;10.10;;;;;;;12.91;100.00;101466.28;5046933;28;20049;-50
2022/10/17 01:22:11;;;;;;;15.73;10.02;;;;;;;12.88;100.00;101461.19;5048234;28;20110;-52
2022/10/17 01:25:08;;;;;;;13.75;9.75;;;;;;;12.89;100.00;101464.69;5049161;28;20056;-49
2022/10/17 01:28:11;;;;;;;15.48;9.55;;;;;;;12.83;100.00;101469.41;5046634;28;20532;-47
2022/10/17 01:30:59;;;;;;;15.07;9.95;;;;;;;12.83;100.00;101460.66;5049312;28;20099;-46
2022/10/17 01:33:37;;;;;;;16.25;10.15;;;;;;;12.81;100.00;101452.81;5047123;28;20512;-50
2022/10/17 01:36:11;;;;;;;13.35;10.02;;;;;;;12.76;100.00;101452.28;5048912;28;20114;-52
2022/10/17 01:38:46;;;;;;;15.27;9.98;;;;;;;12.78;100.00;101460.09;5048793;28;20565;-52
2022/10/17 01:41:25;;;;;;;13.68;9.80;;;;;;;12.77;100.00;101461.03;5048176;28;20049;-54
2022/10/17 01:43:59;;;;;;;14.18;9.73;;;;;;;12.77;100.00;101455.75;5048415;28;20541;-52
2022/10/17 01:46:33;;;;;;;13.05;9.25;;;;;;;12.74;100.00;101450.69;5048220;28;20514;-54
2022/10/17 01:49:04;;;;;;;13.60;9.15;;;;;;;12.74;100.00;101450.69;5047186;28;20053;-54
2022/10/17 01:51:37;;;;;;;15.10;9.13;;;;;;;12.70;100.00;101438.66;5050066;28;20519;-55
2022/10/17 01:54:11;;;;;;;13.75;8.70;;;;;;;12.68;100.00;101439.56;5051425;28;20130;-53
2022/10/17 01:56:41;;;;;;;12.65;8.82;;;;;;;12.68;100.00;101436.94;5034170;28;20116;-50
2022/10/17 01:59:15;;;;;;;13.77;8.45;;;;;;;12.65;100.00;101442.44;5051558;28;20045;-53
2022/10/17 02:01:47;;;;;;;13.13;8.93;;;;;;;12.64;100.00;101440.72;5051975;28;20084;-51
2022/10/17 02:04:15;;;;;;;14.63;8.45;;;;;;;12.64;100.00;101434.63;5050510;28;20068;-53
2022/10/17 02:06:43;;;;;;;14.75;9.98;;;;;;;12.61;100.00;101432.16;5051851;28;20496;-52
2022/10/17 02:09:20;;;;;;;14.70;9.20;;;;;;;12.62;100.00;101434.69;5051754;28;20455;-52
2022/10/17 02:12:13;;;;;;;13.65;8.68;;;;;;;12.62;100.00;101439.97;5051974;28;20049;-53
2022/10/17 02:14:54;;;;;;;12.52;8.75;;;;;;;12.62;100.00;101437.31;5052249;28;20116;-51
2022/10/17 02:17:39;;;;;;;13.02;9.02;;;;;;;12.65;100.00;101431.88;5049840;28;20495;-47
2022/10/17 02:20:17;;;;;;;13.10;9.15;;;;;;;12.62;100.00;101425.94;5050966;28;20048;-47
2022/10/17 02:22:52;;;;;;;14.02;9.27;;;;;;;12.62;100.00;101437.31;5051148;28;20045;-51
2022/10/17 02:25:31;;;;;;;14.25;9.68;;;;;;;12.63;100.00;101427.63;5051291;28;20052;-48
2022/10/17 02:28:07;;;;;;;15.95;9.02;;;;;;;12.63;100.00;101427.63;5050354;28;20045;-51
2022/10/17 02:30:39;;;;;;;13.73;8.95;;;;;;;12.64;100.00;101434.63;5033893;28;20091;-49
2022/10/17 02:33:13;;;;;;;13.55;8.57;;;;;;;12.61;100.00;101426.88;5031273;28;20407;-52
2022/10/17 02:35:46;;;;;;;14.18;8.20;;;;;;;12.62;100.00;101426.75;5033286;28;20052;-52
2022/10/17 02:38:14;;;;;;;13.27;8.18;;;;;;;12.63;100.00;101432.91;5051146;28;20048;-54
2022/10/17 02:40:44;;;;;;;13.30;8.27;;;;;;;12.58;100.00;101433.19;5051847;28;20123;-54
2022/10/17 02:43:14;;;;;;;13.63;8.80;;;;;;;12.57;100.00;101436.78;5050299;28;20056;-53
2022/10/17 02:45:42;;;;;;;16.10;8.88;;;;;;;12.58;100.00;101425.28;5051155;28;20147;-52
2022/10/17 02:48:18;;;;;;;12.15;8.77;;;;;;;12.54;100.00;101421.13;5031089;28;20061;-53
2022/10/17 02:50:57;;;;;;;15.45;10.10;;;;;;;12.48;100.00;101417.09;5051671;28;20049;-49
2022/10/17 02:53:31;;;;;;;12.07;8.55;;;;;;;12.45;100.00;101417.31;5051129;28;20041;-47
2022/10/17 02:56:04;;;;;;;14.43;9.82;;;;;;;12.47;100.00;101425.13;5051097;28;20055;-47
2022/10/17 02:58:35;;;;;;;16.63;9.80;;;;;;;12.44;100.00;101427.97;5050833;28;20438;-52
2022/10/17 03:01:04;;;;;;;13.65;9.15;;;;;;;12.38;100.00;101423.06;5050860;28;20569;-50
2022/10/17 03:03:34;;;;;;;16.58;9.88;;;;;;;12.34;100.00;101418.00;5048146;28;20048;-50
2022/10/17 03:06:02;;;;;;;15.18;9.50;;;;;;;12.28;100.00;101420.16;5051126;28;20476;-50
2022/10/17 03:08:30;;;;;;;13.95;9.43;;;;;;;12.30;100.00;101421.78;5050763;28;20048;-51
2022/10/17 03:10:58;;;;;;;12.82;8.93;;;;;;;12.30;100.00;101416.50;5050825;28;20060;-49
2022/10/17 03:13:26;;;;;;;14.75;10.18;;;;;;;12.30;100.00;101420.94;5050537;28;20231;-51
2022/10/17 03:15:56;;;;;;;12.25;8.68;;;;;;;12.30;100.00;101415.66;5050179;28;20111;-53
2022/10/17 03:18:24;;;;;;;13.48;9.57;;;;;;;12.26;100.00;101422.91;5047900;28;20048;-50
2022/10/17 03:20:54;;;;;;;12.82;9.55;;;;;;;12.27;100.00;101416.69;5049556;28;20056;-50
2022/10/17 03:23:22;;;;;;;12.88;9.10;;;;;;;12.25;100.00;101423.00;5031364;28;20139;-48
2022/10/17 03:25:50;;;;;;;13.40;8.35;;;;;;;12.25;100.00;101417.72;5049816;28;20060;-47
2022/10/17 03:28:18;;;;;;;11.25;8.20;;;;;;;12.22;100.00;101420.56;5049164;28;20036;-47
2022/10/17 03:30:46;;;;;;;13.68;8.35;;;;;;;12.22;100.00;101415.31;5049973;28;20049;-49
2022/10/17 03:33:14;;;;;;;11.15;7.82;;;;;;;12.22;100.00;101424.03;5047638;28;20083;-53
2022/10/17 03:35:43;;;;;;;12.50;8.27;;;;;;;12.18;100.00;101427.81;5049483;28;20045;-51
2022/10/17 03:38:15;;;;;;;13.13;8.35;;;;;;;12.16;100.00;101435.84;5049645;28;20041;-51
2022/10/17 03:40:43;;;;;;;12.15;8.20;;;;;;;12.17;100.00;101434.03;5049591;28;20079;-51
2022/10/17 03:43:11;;;;;;;11.13;8.23;;;;;;;12.15;100.00;101433.28;5048439;28;20152;-52
2022/10/17 03:45:39;;;;;;;11.75;8.98;;;;;;;12.17;100.00;101429.63;5049552;28;20553;-50
2022/10/17 03:48:07;;;;;;;12.50;8.98;;;;;;;12.13;100.00;101429.88;5047387;28;20357;-48
2022/10/17 03:50:35;;;;;;;11.25;8.25;;;;;;;12.12;100.00;101428.19;5049796;28;20069;-51
2022/10/17 03:53:03;;;;;;;11.63;8.35;;;;;;;12.09;100.00;101441.56;5048993;28;20045;-50
2022/10/17 03:55:32;;;;;;;12.48;8.52;;;;;;;12.13;100.00;101429.88;5048614;28;20067;-53
2022/10/17 03:58:01;;;;;;;11.90;8.30;;;;;;;12.13;100.00;101425.47;5048618;28;20044;-53
2022/10/17 04:00:29;;;;;;;13.18;9.05;;;;;;;12.14;100.00;101432.44;5048372;28;20051;-53
2022/10/17 04:02:58;;;;;;;12.70;8.82;;;;;;;12.14;100.00;101436.88;5046213;28;20484;-53
2022/10/17 04:05:26;;;;;;;12.93;7.95;;;;;;;12.12;100.00;101430.81;5048379;28;20407;-49
2022/10/17 04:07:54;;;;;;;13.02;9.30;;;;;;;12.06;100.00;101431.22;5048177;28;20503;-50
2022/10/17 04:10:23;;;;;;;12.13;8.50;;;;;;;12.09;100.00;101431.03;5048395;28;20087;-49
2022/10/17 04:12:52;;;;;;;13.02;8.40;;;;;;;12.09;100.00;101429.25;5048303;28;20456;-50
2022/10/17 04:15:20;;;;;;;13.50;8.65;;;;;;;12.06;100.00;101425.94;5030714;28;20056;-51
2022/10/17 04:17:48;;;;;;;11.20;8.35;;;;;;;12.07;100.00;101422.38;5023830;28;177863;-48
2022/10/17 04:20:16;;;;;;;11.40;8.52;;;;;;;12.04;100.00;101435.72;5049581;28;20152;-53
2022/10/17 04:22:45;;;;;;;13.57;8.43;;;;;;;12.07;100.00;101438.19;5049466;28;20408;-49
2022/10/17 04:25:15;;;;;;;14.43;8.48;;;;;;;12.03;100.00;101449.88;5049892;28;20053;-51
2022/10/17 04:27:44;;;;;;;13.77;8.90;;;;;;;12.06;100.00;101444.41;5049328;28;20503;-52
2022/10/17 04:30:13;;;;;;;13.52;8.93;;;;;;;12.07;100.00;101449.59;5049085;28;20620;-48
2022/10/17 04:32:41;;;;;;;10.63;7.78;;;;;;;12.08;100.00;101450.41;5047626;28;20053;-48
2022/10/17 04:35:11;;;;;;;11.27;7.97;;;;;;;12.07;100.00;101446.94;5049052;28;20514;-49
2022/10/17 04:37:39;;;;;;;12.57;8.32;;;;;;;12.08;100.00;101442.50;5049374;28;20053;-48
2022/10/17 04:40:09;;;;;;;13.32;10.00;;;;;;;12.17;100.00;101447.22;5049157;28;20045;-47
2022/10/17 04:42:37;;;;;;;14.35;9.50;;;;;;;12.17;100.00;101442.81;5048473;28;20549;-51
2022/10/17 04:45:06;;;;;;;19.13;9.77;;;;;;;12.22;100.00;101441.66;5048906;28;20132;-51
2022/10/17 04:47:36;;;;;;;14.05;9.23;;;;;;;12.24;100.00;101437.97;5047622;28;20045;-48
2022/10/17 04:50:05;;;;;;;14.15;10.27;;;;;;;12.22;100.00;101450.41;5048892;28;20068;-49
2022/10/17 04:52:36;;;;;;;12.23;8.95;;;;;;;12.21;100.00;101461.91;5049099;28;20049;-46
2022/10/17 04:55:05;;;;;;;12.75;9.65;;;;;;;12.21;100.00;101468.97;5049342;28;20063;-50
2022/10/17 04:57:35;;;;;;;12.75;8.85;;;;;;;12.19;100.00;101469.06;5048547;28;20132;-53
2022/10/17 05:00:04;;;;;;;14.57;9.40;;;;;;;12.16;100.00;101471.88;5049086;28;20053;-47
2022/10/17 05:02:32;;;;;;;13.23;9.35;;;;;;;12.17;100.00;101476.22;5047679;28;20072;-51
2022/10/17 05:05:01;;;;;;;11.88;8.57;;;;;;;12.17;100.00;101469.16;5048811;28;20047;-48
2022/10/17 05:07:29;;;;;;;14.35;9.63;;;;;;;12.19;100.00;101487.53;5048926;28;20091;-47
2022/10/17 05:09:58;;;;;;;13.77;9.40;;;;;;;12.22;100.00;101489.97;5049221;28;20052;-48
2022/10/17 05:12:26;;;;;;;12.27;8.70;;;;;;;12.23;100.00;101493.44;5047779;28;20041;-49
2022/10/17 05:14:54;;;;;;;12.95;8.27;;;;;;;12.19;100.00;101492.81;5048803;28;20432;-47
2022/10/17 05:17:22;;;;;;;16.17;10.07;;;;;;;12.24;100.00;101501.25;5029527;28;20146;-50
2022/10/17 05:19:50;;;;;;;14.10;9.80;;;;;;;12.27;100.00;101492.31;5048699;28;20095;-50
2022/10/17 05:22:20;;;;;;;14.43;10.52;;;;;;;12.50;100.00;101486.47;5049089;28;20123;-53
2022/10/17 05:24:48;;;;;;;16.67;10.88;;;;;;;12.50;100.00;101485.59;5049165;28;20045;-53
2022/10/17 05:27:16;;;;;;;15.15;11.43;;;;;;;12.56;100.00;101492.31;5051475;28;20080;-53
2022/10/17 05:29:44;;;;;;;14.85;10.60;;;;;;;12.63;100.00;101490.97;5052473;28;20053;-53
2022/10/17 05:32:12;;;;;;;19.88;10.85;;;;;;;12.61;100.00;101493.69;5051010;28;20124;-55
2022/10/17 05:34:40;;;;;;;13.73;10.27;;;;;;;12.59;100.00;101498.22;5052609;28;20060;-54
2022/10/17 05:37:08;;;;;;;14.05;10.02;;;;;;;12.64;100.00;101503.22;5052605;28;20143;-54
2022/10/17 05:39:38;;;;;;;13.77;9.32;;;;;;;12.60;100.00;101496.44;5052628;28;20049;-55
2022/10/17 05:42:07;;;;;;;16.80;10.57;;;;;;;12.74;100.00;101495.56;5052303;28;20060;-54
2022/10/17 05:44:35;;;;;;;14.93;10.27;;;;;;;12.74;100.00;101498.19;5034559;28;20516;-53
2022/10/17 05:47:07;;;;;;;17.92;9.77;;;;;;;12.74;100.00;101500.84;5051209;28;20538;-55
2022/10/17 05:49:35;;;;;;;13.20;10.07;;;;;;;12.87;100.00;101501.75;5051477;28;20044;-53
2022/10/17 05:52:19;;;;;;;15.98;11.13;;;;;;;12.91;100.00;101510.31;5052248;28;20049;-54
2022/10/17 05:54:49;;;;;;;17.65;11.73;;;;;;;12.92;100.00;101506.72;5052672;28;20049;-54
2022/10/17 05:57:17;;;;;;;18.92;11.40;;;;;;;12.98;100.00;101507.16;5051548;28;20044;-54
2022/10/17 05:59:45;;;;;;;19.27;11.75;;;;;;;12.96;100.00;101516.13;5052414;28;20123;-53
2022/10/17 06:02:13;;;;;;;13.23;10.50;;;;;;;12.93;100.00;101509.25;5050534;28;20052;-55
2022/10/17 06:04:44;;;;;;;13.98;10.80;;;;;;;12.92;100.00;101507.56;5051632;28;20052;-54
2022/10/17 06:07:13;;;;;;;15.90;11.65;;;;;;;12.91;100.00;101511.16;5051679;28;20049;-55
2022/10/17 06:09:41;;;;;;;14.32;11.35;;;;;;;12.95;100.00;101522.34;5051808;28;20065;-54
2022/10/17 06:12:10;;;;;;;16.75;10.60;;;;;;;12.95;100.00;101525.84;5051083;28;20110;-53
2022/10/17 06:14:39;;;;;;;17.08;10.57;;;;;;;12.93;100.00;101519.81;5052364;28;20048;-55
2022/10/17 06:17:07;;;;;;;16.63;10.85;;;;;;;12.99;100.00;101519.44;5050122;28;20060;-54
2022/10/17 06:19:43;;;;;;;21.20;12.57;;;;;;;13.03;100.00;101520.06;5051049;28;20045;-54
2022/10/17 06:22:11;;;;;;;15.82;12.07;;;;;;;13.06;100.00;101519.03;5053508;28;20055;-54
2022/10/17 06:24:39;;;;;;;14.63;11.05;;;;;;;13.09;100.00;101514.41;5051980;28;20755;-54
2022/10/17 06:27:08;;;;;;;17.15;12.55;;;;;;;13.22;100.00;101526.81;5050519;28;20072;-54
2022/10/17 06:29:40;;;;;;;17.70;11.82;;;;;;;13.26;100.00;101523.00;5051608;28;20132;-54
2022/10/17 06:32:08;;;;;;;15.35;11.43;;;;;;;13.54;100.00;101535.28;5049821;28;20056;-53
2022/10/17 06:34:41;;;;;;;16.13;12.30;;;;;;;13.47;100.00;101529.56;5050745;28;20167;-54
2022/10/17 06:37:09;;;;;;;17.45;13.18;;;;;;;13.61;100.00;101533.91;5050889;28;20055;-53
2022/10/17 06:39:38;;;;;;;17.63;12.07;;;;;;;13.60;100.00;101541.94;5051869;28;20496;-54
2022/10/17 06:42:06;;;;;;;19.83;12.43;;;;;;;13.61;100.00;101547.13;5050657;28;20041;-54
2022/10/17 06:44:34;;;;;;;15.30;11.25;;;;;;;13.61;100.00;101547.13;5051455;28;20179;-54
2022/10/17 06:47:03;;;;;;;18.85;12.23;;;;;;;13.63;100.00;101547.00;5050425;28;20411;-54
2022/10/17 06:49:33;;;;;;;16.73;10.85;;;;;;;13.66;100.00;101530.94;5050021;28;20045;-53
2022/10/17 06:52:01;;;;;;;16.33;11.05;;;;;;;13.82;100.00;101538.69;5050826;28;20055;-54
2022/10/17 06:54:29;;;;;;;17.67;11.85;;;;;;;13.85;100.00;101535.84;5051214;28;20110;-55
2022/10/17 06:56:57;;;;;;;16.38;12.15;;;;;;;13.89;100.00;101534.66;5050874;28;20044;-54
2022/10/17 06:59:25;;;;;;;17.33;12.05;;;;;;;13.92;100.00;101534.47;5050156;28;20048;-54
2022/10/17 07:01:56;;;;;;;17.60;11.52;;;;;;;13.95;100.00;101551.94;5050259;28;20151;-54
2022/10/17 07:04:26;;;;;;;19.15;12.38;;;;;;;13.95;100.00;101544.84;5049356;28;20049;-54
2022/10/17 07:06:54;;;;;;;17.85;12.07;;;;;;;13.99;100.00;101553.44;5051218;28;20053;-55
2022/10/17 07:09:23;;;;;;;16.38;11.50;;;;;;;14.09;100.00;101551.00;5050652;28;20083;-53
2022/10/17 07:11:51;;;;;;;16.27;11.65;;;;;;;14.17;100.00;101546.84;5050974;28;20045;-53
2022/10/17 07:14:19;;;;;;;17.17;12.25;;;;;;;14.17;100.00;101548.66;5050938;28;20077;-55
2022/10/17 07:16:47;;;;;;;20.10;11.75;;;;;;;14.19;100.00;101554.66;5050563;28;20065;-55
2022/10/17 07:19:16;;;;;;;16.75;11.60;;;;;;;14.22;100.00;101561.56;5048574;28;20189;-55
2022/10/17 07:21:46;;;;;;;17.90;11.85;;;;;;;14.22;100.00;101578.28;5050590;28;20056;-56
2022/10/17 07:24:14;;;;;;;15.57;11.98;;;;;;;14.26;100.00;101574.47;5050079;28;20369;-55
2022/10/17 07:26:42;;;;;;;19.95;11.40;;;;;;;14.34;100.00;101580.09;5050385;28;20041;-56
2022/10/17 07:29:11;;;;;;;17.20;11.90;;;;;;;14.39;100.00;101586.84;5049761;28;20411;-56
2022/10/17 07:31:39;;;;;;;18.40;12.27;;;;;;;14.44;100.00;101587.34;5049890;28;20053;-55
2022/10/17 07:34:07;;;;;;;18.83;12.35;;;;;;;14.54;100.00;101588.41;5030218;28;20192;-56
2022/10/17 07:36:35;;;;;;;18.65;12.50;;;;;;;14.65;100.00;101577.94;5050448;28;20064;-57
2022/10/17 07:39:05;;;;;;;20.08;12.55;;;;;;;14.75;100.00;101578.16;5050069;28;20099;-57
2022/10/17 07:41:33;;;;;;;17.17;12.63;;;;;;;14.86;100.00;101578.22;5050503;28;20373;-55
2022/10/17 07:44:01;;;;;;;15.82;11.57;;;;;;;14.93;100.00;101580.41;5049934;28;20605;-54
2022/10/17 07:46:30;;;;;;;14.98;12.18;;;;;;;14.97;100.00;101577.47;5049512;28;20111;-55
2022/10/17 07:48:58;;;;;;;15.88;11.65;;;;;;;15.03;100.00;101578.81;5047515;28;20047;-54
2022/10/17 07:51:26;;;;;;;16.17;12.25;;;;;;;15.12;100.00;101572.00;5050069;28;20033;-53
2022/10/17 07:53:54;;;;;;;14.13;10.95;;;;;;;15.15;100.00;101582.38;5049756;28;20041;-55
2022/10/17 07:56:24;;;;;;;15.57;10.18;;;;;;;15.19;100.00;101584.69;5032380;28;20135;-55
2022/10/17 07:58:53;;;;;;;15.38;11.63;;;;;;;15.22;100.00;101599.53;5049897;28;20057;-54
2022/10/17 08:01:21;;;;;;;16.00;11.02;;;;;;;15.25;100.00;101615.19;5049678;28;20048;-55
2022/10/17 08:03:49;;;;;;;16.45;10.98;;;;;;;15.35;100.00;101620.66;5048221;28;20049;-54
2022/10/17 08:06:17;;;;;;;17.40;11.13;;;;;;;15.31;100.00;101629.78;5050404;28;20487;-55
2022/10/17 08:08:45;;;;;;;16.27;10.32;;;;;;;15.32;100.00;101640.28;5050167;28;20506;-56
2022/10/17 08:11:15;;;;;;;15.60;10.90;;;;;;;15.32;100.00;101647.38;5049403;28;20084;-55
2022/10/17 08:13:44;;;;;;;18.60;10.48;;;;;;;15.31;100.00;101659.81;5049393;28;20056;-55
2022/10/17 08:16:13;;;;;;;16.73;10.15;;;;;;;15.36;100.00;101670.06;5030617;28;20107;-54
2022/10/17 08:18:43;;;;;;;13.40;9.98;;;;;;;15.36;100.00;101684.13;5047614;28;20052;-55
2022/10/17 08:21:12;;;;;;;18.05;10.23;;;;;;;15.35;100.00;101690.41;5049301;28;20154;-54
2022/10/17 08:23:41;;;;;;;14.65;10.60;;;;;;;15.35;100.00;101689.56;5050162;28;20053;-53
2022/10/17 08:26:12;;;;;;;14.18;10.88;;;;;;;15.35;100.00;101698.38;5049213;28;20044;-53
2022/10/17 08:28:40;;;;;;;16.88;10.27;;;;;;;15.35;100.00;101721.34;5049301;28;20131;-52
2022/10/17 08:31:12;;;;;;;15.02;11.00;;;;;;;15.34;100.00;101735.59;5048945;28;20053;-53
2022/10/17 08:33:40;;;;;;;16.25;10.02;;;;;;;15.32;100.00;101733.03;5048251;28;20056;-54
2022/10/17 08:36:14;;;;;;;16.88;10.05;;;;;;;15.31;100.00;101723.41;5048821;28;20069;-50
2022/10/17 08:38:43;;;;;;;15.30;10.48;;;;;;;15.31;100.00;101710.16;5049677;28;20530;-51
2022/10/17 08:41:17;;;;;;;16.73;10.25;;;;;;;15.33;100.00;101686.19;5048881;28;20040;-52
2022/10/17 08:43:58;;;;;;;15.00;10.07;;;;;;;15.32;100.00;101690.63;5049100;28;20791;-52
2022/10/17 08:46:32;;;;;;;17.88;11.35;;;;;;;15.33;100.00;101673.78;5048645;28;20146;-51
2022/10/17 08:49:04;;;;;;;16.95;10.65;;;;;;;15.33;100.00;101681.72;5046950;28;20045;-47
2022/10/17 08:51:48;;;;;;;18.40;11.30;;;;;;;15.40;100.00;101705.16;5031297;28;20052;-51
2022/10/17 08:54:20;;;;;;;14.52;11.20;;;;;;;15.42;100.00;101727.06;5049215;28;20388;-52
2022/10/17 08:56:51;;;;;;;15.53;10.73;;;;;;;15.41;100.00;101749.25;5049284;28;20044;-52
2022/10/17 08:59:25;;;;;;;13.82;10.55;;;;;;;15.42;100.00;101774.78;5049128;28;20701;-50
2022/10/17 09:02:01;;;;;;;17.75;11.20;;;;;;;15.41;100.00;101805.75;5051826;28;20041;-51
2022/10/17 09:04:55;;;;;;;17.10;11.07;;;;;;;15.42;100.00;101759.75;5052067;28;20037;-51
2022/10/17 09:07:31;;;;;;;17.98;10.05;;;;;;;15.42;100.00;101780.06;5053169;28;20055;-50
2022/10/17 09:10:10;;;;;;;20.23;10.48;;;;;;;15.51;100.00;101759.06;5052710;28;20103;-51
2022/10/17 09:12:49;;;;;;;14.38;10.15;;;;;;;15.50;100.00;101744.13;5052302;28;20059;-51
2022/10/17 09:15:50;;;;;;;16.48;10.82;;;;;;;15.53;100.00;101751.84;5052666;28;20053;-48
2022/10/17 09:18:26;;;;;;;14.65;10.43;;;;;;;15.54;100.00;101739.44;5017841;28;20080;-49
2022/10/17 09:21:00;;;;;;;18.27;11.25;;;;;;;15.55;100.00;101749.09;5052352;28;20041;-50
2022/10/17 09:23:32;;;;;;;15.23;10.55;;;;;;;15.55;100.00;101722.59;5052458;28;20044;-48
2022/10/17 09:26:01;;;;;;;16.98;9.93;;;;;;;15.59;100.00;101732.00;5052841;28;20095;-48
2022/10/17 09:28:33;;;;;;;17.30;10.38;;;;;;;15.58;100.00;101748.88;5052684;28;20056;-51
2022/10/17 09:31:04;;;;;;;13.93;9.85;;;;;;;15.67;100.00;101764.13;5052317;28;20372;-51
2022/10/17 09:33:37;;;;;;;12.85;9.48;;;;;;;15.66;100.00;101754.47;5051355;28;20476;-49
2022/10/17 09:36:24;;;;;;;13.93;9.30;;;;;;;15.66;100.00;101746.50;5052336;28;20179;-47
2022/10/17 09:38:54;;;;;;;14.73;9.60;;;;;;;15.66;100.00;101743.84;5054401;28;20454;-50
2022/10/17 09:41:34;;;;;;;13.35;9.40;;;;;;;15.68;100.00;101746.41;5053567;28;20056;-48
2022/10/17 09:44:21;;;;;;;13.25;8.90;;;;;;;15.67;100.00;101779.19;5052289;28;20053;-48
2022/10/17 09:47:06;;;;;;;17.23;9.20;;;;;;;15.63;100.00;101788.31;5052492;28;20052;-49
2022/10/17 09:49:37;;;;;;;14.68;9.15;;;;;;;15.67;100.00;101785.31;5051952;28;20972;-50
2022/10/17 09:52:11;;;;;;;14.38;8.73;;;;;;;15.66;100.00;101809.31;5052460;28;20194;-47
2022/10/17 09:54:46;;;;;;;14.10;8.85;;;;;;;15.65;100.00;101824.38;5052702;28;20118;-48
2022/10/17 09:57:16;;;;;;;14.82;8.95;;;;;;;15.66;100.00;101794.22;5051746;28;20565;-48
2022/10/17 09:59:55;;;;;;;14.90;9.68;;;;;;;15.70;100.00;101806.31;5052569;28;20080;-49
2022/10/17 10:02:24;;;;;;;14.45;8.95;;;;;;;15.73;100.00;101807.91;5050347;28;20407;-48
2022/10/17 10:04:57;;;;;;;16.15;9.40;;;;;;;15.78;100.00;101768.63;5051721;28;20053;-50
2022/10/17 10:07:36;;;;;;;11.07;8.10;;;;;;;15.82;100.00;101729.53;5052350;28;20076;-47
2022/10/17 10:10:08;;;;;;;13.45;8.35;;;;;;;15.83;100.00;101734.72;5052144;28;20053;-51
2022/10/17 10:12:38;;;;;;;12.50;8.07;;;;;;;15.85;100.00;101735.44;5051365;28;20397;-48
2022/10/17 10:15:32;;;;;;;13.00;8.52;;;;;;;15.89;100.00;101751.97;5051848;28;20407;-50
2022/10/17 10:18:00;;;;;;;;;;;;;;;15.91;100.00;101758.03;5047243;28;20099;-48
2022/10/17 10:20:33;;;;;;;13.57;8.18;;;;;;;15.89;100.00;101773.19;5052175;28;19927;-49
2022/10/17 10:23:16;;;;;;;13.95;8.10;;;;;;;15.88;100.00;101822.75;5052023;28;20071;-51
2022/10/17 10:25:53;;;;;;;11.85;7.78;;;;;;;15.86;100.00;101814.06;5052380;28;20075;-51
2022/10/17 10:28:25;;;;;;;14.30;8.27;;;;;;;15.91;100.00;101795.16;5051190;28;20041;-46
2022/10/17 10:30:54;;;;;;;;;;;;;;;15.94;100.00;101779.03;5051202;28;20044;-52
2022/10/17 10:33:25;;;;;;;11.63;7.03;;;;;;;15.95;100.00;101790.47;5049895;28;19920;-49
2022/10/17 10:36:00;;;;;;;11.20;6.80;;;;;;;15.98;100.00;101783.16;5051833;28;20041;-50
2022/10/17 10:38:29;;;;;;;13.95;7.13;;;;;;;16.00;100.00;101794.47;5051642;28;20045;-49
2022/10/17 10:41:03;;;;;;;10.45;7.13;;;;;;;16.03;100.00;101804.88;5051668;28;20049;-47
2022/10/17 10:43:36;;;;;;;12.43;7.47;;;;;;;16.05;100.00;101799.47;5051142;28;20480;-47
2022/10/17 10:46:16;;;;;;;10.75;6.72;;;;;;;16.06;100.00;101803.81;5051140;28;20377;-51
2022/10/17 10:48:51;;;;;;;12.38;7.05;;;;;;;16.07;100.00;101802.00;5050028;28;20538;-50
2022/10/17 10:51:25;;;;;;;9.13;6.50;;;;;;;16.10;100.00;101809.72;5051235;28;20048;-56
2022/10/17 10:54:00;;;;;;;11.75;6.82;;;;;;;16.10;100.00;101813.25;5051088;28;20056;-54
2022/10/17 10:56:34;;;;;;;13.25;6.65;;;;;;;16.14;100.00;101816.50;5050594;28;20132;-55
2022/10/17 10:59:06;;;;;;;13.27;7.13;;;;;;;16.20;100.00;101832.81;5050542;28;20107;-52
2022/10/17 11:01:44;;;;;;;11.55;7.43;;;;;;;16.26;100.00;101842.13;5050774;28;20052;-47
2022/10/17 11:04:26;;;;;;;9.63;7.00;;;;;;;16.32;100.00;101839.03;5048980;28;20530;-52
2022/10/17 11:07:03;;;;;;;11.00;7.13;;;;;;;16.27;100.00;101848.31;5050803;28;20053;-51
2022/10/17 11:09:44;;;;;;;11.13;7.05;;;;;;;16.34;100.00;101853.03;5050891;28;20516;-47
2022/10/17 11:12:18;;;;;;;12.63;7.75;;;;;;;16.40;100.00;101854.38;5049741;28;20041;-50
2022/10/17 11:14:52;;;;;;;10.35;6.68;;;;;;;16.45;100.00;101862.84;5050968;28;20064;-48
2022/10/17 11:17:30;;;;;;;12.38;7.13;;;;;;;16.47;100.00;101870.69;5049167;28;20114;-52
2022/10/17 11:20:10;;;;;;;9.85;7.05;;;;;;;16.51;100.00;101872.16;5050662;28;20041;-55
2022/10/17 11:22:43;;;;;;;12.23;6.82;;;;;;;16.52;100.00;101877.41;5050511;28;20060;-55
2022/10/17 11:25:22;;;;;;;12.07;6.80;;;;;;;16.53;100.00;101878.22;5049639;28;20041;-56
2022/10/17 11:27:50;;;;;;;10.05;7.00;;;;;;;16.58;100.00;101888.50;5050124;28;20045;-53